Nissos Mykonos — SYJZ — position and weather

sailwx.info

Track history (hours):
 
Tides and Currents Weather Stations Pressure Air Temp Water Temp Dewpoint Dewpoint Depression Visibility Wind Speed Wind Dir Waves Ship Positions

Nissos Mykonos

Last reported at 2017-Oct-21 20:28 UTC. Time now 2017-Oct-22 08:33 UTC.
Position N 40°20' E 024°42'.

Length 141 m; draft 5.2 m.

Type: Passenger vessel. MMSI: 240389000.

Date/timePositionNaut miles runAvg speedWind from/ knotsBaromVisibWave heightAir tempDewpointWater temp
2017-Oct-21 20:28N 40°20' E 024°42'920.2
2017-Oct-21 20:00N 40°28' E 024°36'1020.9
2017-Oct-21 19:30N 40°37' E 024°30'1121.1
2017-Oct-21 19:00N 40°48' E 024°27'9 4.0
2017-Oct-21 16:50N 40°56' E 024°25'0 0.0
2017-Oct-21 16:18N 40°56' E 024°25'0 0.0
2017-Oct-21 15:58N 40°56' E 024°25'614.0
2017-Oct-21 15:30N 40°50' E 024°26'1121.1
2017-Oct-21 15:00N 40°39' E 024°29'2221.6
2017-Oct-21 14:00N 40°20' E 024°42'1621.9
2017-Oct-21 13:17N 40°06' E 024°52'156 8.8
2017-Oct-20 19:32N 37°34' E 025°38'121.1
2017-Oct-20 19:30N 37°34' E 025°38'1621.0
2017-Oct-20 18:45N 37°30' E 025°18'310.0
2017-Oct-20 18:30N 37°28' E 025°19'713.4
2017-Oct-20 18:00N 37°27' E 025°11'1113.7
2017-Oct-20 17:11N 37°26' E 024°57'314.9
2017-Oct-20 16:59N 37°29' E 024°57'920.0
2017-Oct-20 16:30N 37°31' E 024°45'5519.5
2017-Oct-20 13:41N 37°47' E 023°39'420.7
2017-Oct-20 13:30N 37°50' E 023°37'612.6
2017-Oct-20 13:00N 37°57' E 023°38'0 0.0
2017-Oct-20 12:30N 37°57' E 023°38'0 0.0
2017-Oct-20 12:00N 37°57' E 023°38'0 0.0
2017-Oct-20 11:30N 37°57' E 023°38'0 0.0
2017-Oct-20 11:00N 37°57' E 023°38'0 0.0
2017-Oct-20 10:30N 37°57' E 023°38'0 0.0
2017-Oct-20 10:00N 37°57' E 023°38'0 0.0
2017-Oct-20 09:30N 37°57' E 023°38'0 0.0
2017-Oct-20 09:00N 37°57' E 023°38'0 0.0
2017-Oct-20 08:30N 37°57' E 023°38'0 0.0
2017-Oct-20 08:00N 37°57' E 023°38'0 0.0
2017-Oct-20 07:30N 37°57' E 023°38'0 0.0
2017-Oct-20 07:00N 37°57' E 023°38'0 0.0
2017-Oct-20 06:30N 37°57' E 023°38'0 0.0
2017-Oct-20 06:00N 37°57' E 023°38'0 0.0
2017-Oct-20 05:30N 37°57' E 023°38'0 0.0
2017-Oct-20 05:00N 37°57' E 023°38'0 0.0
2017-Oct-20 04:30N 37°57' E 023°38'0 0.0
2017-Oct-20 04:00N 37°57' E 023°38'0 0.0
2017-Oct-20 03:30N 37°57' E 023°38'0 0.0
2017-Oct-20 03:00N 37°57' E 023°38'0 0.0
2017-Oct-20 02:30N 37°57' E 023°38'0 0.0
2017-Oct-20 02:00N 37°57' E 023°38'0 0.0
2017-Oct-20 01:30N 37°57' E 023°38'0 0.0
2017-Oct-20 01:00N 37°57' E 023°38'0 0.0
2017-Oct-20 00:30N 37°57' E 023°38'0 0.0
2017-Oct-20 00:00N 37°57' E 023°38'0 0.0
2017-Oct-19 23:30N 37°57' E 023°38'0 0.0
2017-Oct-19 23:00N 37°57' E 023°38'0 0.0
2017-Oct-19 22:30N 37°57' E 023°38'0 0.0
2017-Oct-19 22:00N 37°57' E 023°38'0 0.0
2017-Oct-19 21:30N 37°57' E 023°38'0 0.0
2017-Oct-19 21:00N 37°57' E 023°38'0 0.0
2017-Oct-19 20:30N 37°57' E 023°38'0 0.0
2017-Oct-19 20:00N 37°57' E 023°38'611.5
2017-Oct-19 19:30N 37°51' E 023°40'8220.0
2017-Oct-19 15:24N 37°28' E 025°19'2818.4
2017-Oct-19 13:52N 37°30' E 025°55'19410.7
2017-Oct-18 19:39N 40°34' E 024°32'320.9
2017-Oct-18 19:30N 40°37' E 024°30'1121.3
2017-Oct-18 19:00N 40°47' E 024°27'9 8.9
2017-Oct-18 17:59N 40°56' E 024°25'1 0.3
2017-Oct-18 15:54N 40°55' E 024°24'820.9
2017-Oct-18 15:30N 40°47' E 024°27'20910.7
2017-Oct-17 20:02N 37°30' E 025°55'020.5
2017-Oct-17 20:00N 37°30' E 025°55'1420.8
2017-Oct-17 19:19N 37°31' E 025°37'720.8
2017-Oct-17 19:00N 37°32' E 025°29'918.0
2017-Oct-17 18:30N 37°29' E 025°18'2 4.3
2017-Oct-17 18:00N 37°28' E 025°16'1223.4
2017-Oct-17 17:30N 37°26' E 025°01'3 6.2
2017-Oct-17 17:00N 37°28' E 024°57'918.2
2017-Oct-17 16:30N 37°31' E 024°47'5320.0
2017-Oct-17 13:50N 37°43' E 023°41'721.5
2017-Oct-17 13:30N 37°49' E 023°37'713.0
2017-Oct-17 12:57N 37°57' E 023°38'0 0.0
2017-Oct-17 12:26N 37°57' E 023°38'0 0.0
2017-Oct-17 12:00N 37°57' E 023°38'0 0.0
2017-Oct-17 11:27N 37°57' E 023°38'0 0.0
2017-Oct-17 11:00N 37°57' E 023°38'0 0.0
2017-Oct-17 10:30N 37°57' E 023°38'2 3.2
2017-Oct-17 10:00N 37°55' E 023°37'1019.5
2017-Oct-17 09:30N 37°46' E 023°42'5119.8
2017-Oct-17 06:55N 37°31' E 024°44'1020.3
2017-Oct-17 06:25N 37°30' E 024°56'4 8.2
2017-Oct-17 05:57N 37°26' E 024°57'1124.4
2017-Oct-17 05:30N 37°28' E 025°10'714.6
2017-Oct-17 05:00N 37°28' E 025°19'611.6
2017-Oct-17 04:30N 37°32' E 025°24'1223.9
2017-Oct-17 04:00N 37°38' E 025°38'3 0.4
2017-Oct-16 19:23N 37°35' E 025°39'820.6
2017-Oct-16 19:00N 37°33' E 025°30'1020.1
2017-Oct-16 18:30N 37°29' E 025°18'2 4.4
2017-Oct-16 18:01N 37°28' E 025°16'1223.5
2017-Oct-16 17:30N 37°26' E 025°01'3 6.6
2017-Oct-16 17:00N 37°28' E 024°57'918.6
2017-Oct-16 16:31N 37°31' E 024°47'5120.5
2017-Oct-16 14:00N 37°41' E 023°43'1021.2
2017-Oct-16 13:31N 37°50' E 023°37'713.3
2017-Oct-16 13:00N 37°57' E 023°38'0 0.0
2017-Oct-16 12:30N 37°57' E 023°38'0 0.0
2017-Oct-16 12:00N 37°57' E 023°38'0 0.0
2017-Oct-16 11:30N 37°57' E 023°38'0 0.0
2017-Oct-16 11:00N 37°57' E 023°38'0 0.0
2017-Oct-16 10:30N 37°57' E 023°38'0 0.0
2017-Oct-16 10:00N 37°57' E 023°38'0 0.0
2017-Oct-16 09:30N 37°57' E 023°38'0 0.0
2017-Oct-16 09:00N 37°57' E 023°38'0 0.0
2017-Oct-16 08:30N 37°57' E 023°38'0 0.0
2017-Oct-16 07:59N 37°57' E 023°38'0 0.0
2017-Oct-16 07:30N 37°57' E 023°38'0 0.0
2017-Oct-16 07:00N 37°57' E 023°38'0 0.0
2017-Oct-16 06:30N 37°57' E 023°38'0 0.0
2017-Oct-16 06:00N 37°57' E 023°38'0 0.0
2017-Oct-16 05:30N 37°57' E 023°38'0 0.0
2017-Oct-16 05:00N 37°57' E 023°38'0 0.0
2017-Oct-16 04:30N 37°57' E 023°38'0 0.0
2017-Oct-16 04:00N 37°57' E 023°38'0 0.0
2017-Oct-16 03:30N 37°57' E 023°38'0 0.0
2017-Oct-16 03:00N 37°57' E 023°38'0 0.0
2017-Oct-16 02:30N 37°57' E 023°38'0 0.0
2017-Oct-16 02:00N 37°57' E 023°38'0 0.0
2017-Oct-16 01:30N 37°57' E 023°38'0 0.0
2017-Oct-16 01:00N 37°57' E 023°38'0 0.0
2017-Oct-16 00:30N 37°57' E 023°38'0 0.0
2017-Oct-16 00:00N 37°57' E 023°38'0 0.0
2017-Oct-15 23:30N 37°57' E 023°38'0 0.0
2017-Oct-15 23:00N 37°57' E 023°38'0 0.0
2017-Oct-15 22:30N 37°57' E 023°38'0 0.0
2017-Oct-15 22:00N 37°57' E 023°38'0 0.0
2017-Oct-15 21:30N 37°57' E 023°38'0 0.0
2017-Oct-15 21:00N 37°57' E 023°38'0 0.0
2017-Oct-15 20:30N 37°57' E 023°38'3 6.1
2017-Oct-15 20:00N 37°54' E 023°38'1223.4
2017-Oct-15 19:31N 37°43' E 023°44'4923.3
2017-Oct-15 17:26N 37°31' E 024°44'1023.6
2017-Oct-15 17:00N 37°30' E 024°56'4 7.8
2017-Oct-15 16:31N 37°27' E 024°59'1224.3
2017-Oct-15 16:01N 37°29' E 025°14'4 8.3
2017-Oct-15 15:31N 37°28' E 025°19'1122.4
2017-Oct-15 15:01N 37°37' E 025°26'2221.7
2017-Oct-15 14:01N 37°37' E 025°53'153 9.2
2017-Oct-14 21:25N 40°03' E 024°54'920.1
2017-Oct-14 20:59N 40°11' E 024°49'1020.6
2017-Oct-14 20:31N 40°19' E 024°42'1020.6
2017-Oct-14 20:01N 40°28' E 024°35'1020.6
2017-Oct-14 19:31N 40°37' E 024°29'1121.2
2017-Oct-14 19:01N 40°48' E 024°26'816.8
2017-Oct-14 18:30N 40°56' E 024°25'0 0.0
2017-Oct-14 18:00N 40°56' E 024°25'0 0.0
2017-Oct-14 17:30N 40°56' E 024°25'0 0.0
2017-Oct-14 17:00N 40°56' E 024°25'0 0.0
2017-Oct-14 16:30N 40°56' E 024°25'0 0.0
2017-Oct-14 16:00N 40°56' E 024°25'611.8
2017-Oct-14 15:31N 40°50' E 024°26'1121.4
2017-Oct-14 15:01N 40°40' E 024°29'1121.8
2017-Oct-14 14:30N 40°30' E 024°36'1122.0
2017-Oct-14 14:01N 40°20' E 024°42'1622.1
2017-Oct-14 13:16N 40°06' E 024°52'156 8.9
2017-Oct-13 19:42N 37°34' E 025°38'421.1
2017-Oct-13 19:30N 37°33' E 025°33'1221.3
2017-Oct-13 18:57N 37°30' E 025°18'2 5.5
2017-Oct-13 18:31N 37°28' E 025°19'1019.4
2017-Oct-13 18:01N 37°27' E 025°07'813.6
2017-Oct-13 17:23N 37°26' E 024°57'613.3
2017-Oct-13 16:57N 37°31' E 024°52'5420.4
2017-Oct-13 14:18N 37°39' E 023°45'620.6
2017-Oct-13 14:00N 37°44' E 023°40'1020.6
2017-Oct-13 13:30N 37°54' E 023°37'3 5.6
2017-Oct-13 13:00N 37°57' E 023°38'0 0.0
2017-Oct-13 12:30N 37°57' E 023°38'0 0.0
2017-Oct-13 12:00N 37°57' E 023°38'0 0.0
2017-Oct-13 11:30N 37°57' E 023°38'0 0.0
2017-Oct-13 11:00N 37°57' E 023°38'0 0.0
2017-Oct-13 10:30N 37°57' E 023°38'0 0.0
2017-Oct-13 10:00N 37°57' E 023°38'0 0.0
2017-Oct-13 09:30N 37°57' E 023°38'0 0.0
2017-Oct-13 09:01N 37°57' E 023°38'0 0.0
2017-Oct-13 08:30N 37°57' E 023°38'0 0.0
2017-Oct-13 08:00N 37°57' E 023°38'611.8
2017-Oct-13 07:31N 37°51' E 023°37'611.8
2017-Oct-13 07:00N 37°57' E 023°38'0 0.0
2017-Oct-13 06:30N 37°57' E 023°38'0 0.0
2017-Oct-13 06:00N 37°57' E 023°38'0 0.0
2017-Oct-13 05:30N 37°57' E 023°38'0 0.0
2017-Oct-13 05:00N 37°57' E 023°38'0 0.0
2017-Oct-13 04:30N 37°57' E 023°38'0 0.0
2017-Oct-13 04:00N 37°57' E 023°38'0 0.0
2017-Oct-13 03:30N 37°57' E 023°38'0 0.0
2017-Oct-13 03:00N 37°57' E 023°38'0 0.0
2017-Oct-13 02:30N 37°57' E 023°38'0 0.0
2017-Oct-13 02:00N 37°57' E 023°38'0 0.0
2017-Oct-13 01:30N 37°57' E 023°38'0 0.0
2017-Oct-13 01:00N 37°57' E 023°38'0 0.0
2017-Oct-13 00:30N 37°57' E 023°38'0 0.0
2017-Oct-13 00:00N 37°57' E 023°38'0 0.0
2017-Oct-12 23:30N 37°57' E 023°38'0 0.0
2017-Oct-12 23:00N 37°57' E 023°38'0 0.0
2017-Oct-12 22:30N 37°57' E 023°38'0 0.0
2017-Oct-12 22:00N 37°57' E 023°38'0 0.0
2017-Oct-12 21:30N 37°57' E 023°38'0 0.0
2017-Oct-12 21:00N 37°57' E 023°38'0 0.0
2017-Oct-12 20:30N 37°57' E 023°38'4 8.1
2017-Oct-12 20:01N 37°53' E 023°39'1224.2
2017-Oct-12 19:30N 37°42' E 023°45'4723.6
2017-Oct-12 17:30N 37°31' E 024°44'1122.5
2017-Oct-12 17:00N 37°29' E 024°57'5 9.5
2017-Oct-12 16:27N 37°27' E 025°03'1124.3
2017-Oct-12 16:01N 37°28' E 025°17'2 3.7
2017-Oct-12 15:30N 37°28' E 025°19'714.6
2017-Oct-12 15:01N 37°31' E 025°28'1223.0
2017-Oct-12 14:31N 37°31' E 025°42'148 9.0
2017-Oct-11 22:01N 39°55' E 024°60'120.9
2017-Oct-11 21:59N 39°55' E 024°59'1020.6
2017-Oct-11 21:30N 40°04' E 024°53'1020.4
2017-Oct-11 21:00N 40°13' E 024°47'1021.0
2017-Oct-11 20:30N 40°22' E 024°39'  
Track history (hours):
 
Tides and Currents Weather Stations Pressure Air Temp Water Temp Dewpoint Dewpoint Depression Visibility Wind Speed Wind Dir Waves Ship Positions

Nissos Mykonos

Last reported at 2017-Oct-21 20:28 UTC. Time now 2017-Oct-22 08:33 UTC.
Position N 40°20' E 024°42'.

Length 141 m; draft 5.2 m.

Type: Passenger vessel. MMSI: 240389000.

Date/timePositionNaut miles runAvg speedWind from/ knotsBaromVisibWave heightAir tempDewpointWater temp
2017-Oct-21 20:28N 40°20' E 024°42'920.2
2017-Oct-21 20:00N 40°28' E 024°36'1020.9
2017-Oct-21 19:30N 40°37' E 024°30'1121.1
2017-Oct-21 19:00N 40°48' E 024°27'9 4.0
2017-Oct-21 16:50N 40°56' E 024°25'0 0.0
2017-Oct-21 16:18N 40°56' E 024°25'0 0.0
2017-Oct-21 15:58N 40°56' E 024°25'614.0
2017-Oct-21 15:30N 40°50' E 024°26'1121.1
2017-Oct-21 15:00N 40°39' E 024°29'2221.6
2017-Oct-21 14:00N 40°20' E 024°42'1621.9
2017-Oct-21 13:17N 40°06' E 024°52'156 8.8
2017-Oct-20 19:32N 37°34' E 025°38'121.1
2017-Oct-20 19:30N 37°34' E 025°38'1621.0
2017-Oct-20 18:45N 37°30' E 025°18'310.0
2017-Oct-20 18:30N 37°28' E 025°19'713.4
2017-Oct-20 18:00N 37°27' E 025°11'1113.7
2017-Oct-20 17:11N 37°26' E 024°57'314.9
2017-Oct-20 16:59N 37°29' E 024°57'920.0
2017-Oct-20 16:30N 37°31' E 024°45'5519.5
2017-Oct-20 13:41N 37°47' E 023°39'420.7
2017-Oct-20 13:30N 37°50' E 023°37'612.6
2017-Oct-20 13:00N 37°57' E 023°38'0 0.0
2017-Oct-20 12:30N 37°57' E 023°38'0 0.0
2017-Oct-20 12:00N 37°57' E 023°38'0 0.0
2017-Oct-20 11:30N 37°57' E 023°38'0 0.0
2017-Oct-20 11:00N 37°57' E 023°38'0 0.0
2017-Oct-20 10:30N 37°57' E 023°38'0 0.0
2017-Oct-20 10:00N 37°57' E 023°38'0 0.0
2017-Oct-20 09:30N 37°57' E 023°38'0 0.0
2017-Oct-20 09:00N 37°57' E 023°38'0 0.0
2017-Oct-20 08:30N 37°57' E 023°38'0 0.0
2017-Oct-20 08:00N 37°57' E 023°38'0 0.0
2017-Oct-20 07:30N 37°57' E 023°38'0 0.0
2017-Oct-20 07:00N 37°57' E 023°38'0 0.0
2017-Oct-20 06:30N 37°57' E 023°38'0 0.0
2017-Oct-20 06:00N 37°57' E 023°38'0 0.0
2017-Oct-20 05:30N 37°57' E 023°38'0 0.0
2017-Oct-20 05:00N 37°57' E 023°38'0 0.0
2017-Oct-20 04:30N 37°57' E 023°38'0 0.0
2017-Oct-20 04:00N 37°57' E 023°38'0 0.0
2017-Oct-20 03:30N 37°57' E 023°38'0 0.0
2017-Oct-20 03:00N 37°57' E 023°38'0 0.0
2017-Oct-20 02:30N 37°57' E 023°38'0 0.0
2017-Oct-20 02:00N 37°57' E 023°38'0 0.0
2017-Oct-20 01:30N 37°57' E 023°38'0 0.0
2017-Oct-20 01:00N 37°57' E 023°38'0 0.0
2017-Oct-20 00:30N 37°57' E 023°38'0 0.0
2017-Oct-20 00:00N 37°57' E 023°38'0 0.0
2017-Oct-19 23:30N 37°57' E 023°38'0 0.0
2017-Oct-19 23:00N 37°57' E 023°38'0 0.0
2017-Oct-19 22:30N 37°57' E 023°38'0 0.0
2017-Oct-19 22:00N 37°57' E 023°38'0 0.0
2017-Oct-19 21:30N 37°57' E 023°38'0 0.0
2017-Oct-19 21:00N 37°57' E 023°38'0 0.0
2017-Oct-19 20:30N 37°57' E 023°38'0 0.0
2017-Oct-19 20:00N 37°57' E 023°38'611.5
2017-Oct-19 19:30N 37°51' E 023°40'8220.0
2017-Oct-19 15:24N 37°28' E 025°19'2818.4
2017-Oct-19 13:52N 37°30' E 025°55'19410.7
2017-Oct-18 19:39N 40°34' E 024°32'320.9
2017-Oct-18 19:30N 40°37' E 024°30'1121.3
2017-Oct-18 19:00N 40°47' E 024°27'9 8.9
2017-Oct-18 17:59N 40°56' E 024°25'1 0.3
2017-Oct-18 15:54N 40°55' E 024°24'820.9
2017-Oct-18 15:30N 40°47' E 024°27'20910.7
2017-Oct-17 20:02N 37°30' E 025°55'020.5
2017-Oct-17 20:00N 37°30' E 025°55'1420.8
2017-Oct-17 19:19N 37°31' E 025°37'720.8
2017-Oct-17 19:00N 37°32' E 025°29'918.0
2017-Oct-17 18:30N 37°29' E 025°18'2 4.3
2017-Oct-17 18:00N 37°28' E 025°16'1223.4
2017-Oct-17 17:30N 37°26' E 025°01'3 6.2
2017-Oct-17 17:00N 37°28' E 024°57'918.2
2017-Oct-17 16:30N 37°31' E 024°47'5320.0
2017-Oct-17 13:50N 37°43' E 023°41'721.5
2017-Oct-17 13:30N 37°49' E 023°37'713.0
2017-Oct-17 12:57N 37°57' E 023°38'0 0.0
2017-Oct-17 12:26N 37°57' E 023°38'0 0.0
2017-Oct-17 12:00N 37°57' E 023°38'0 0.0
2017-Oct-17 11:27N 37°57' E 023°38'0 0.0
2017-Oct-17 11:00N 37°57' E 023°38'0 0.0
2017-Oct-17 10:30N 37°57' E 023°38'2 3.2
2017-Oct-17 10:00N 37°55' E 023°37'1019.5
2017-Oct-17 09:30N 37°46' E 023°42'5119.8
2017-Oct-17 06:55N 37°31' E 024°44'1020.3
2017-Oct-17 06:25N 37°30' E 024°56'4 8.2
2017-Oct-17 05:57N 37°26' E 024°57'1124.4
2017-Oct-17 05:30N 37°28' E 025°10'714.6
2017-Oct-17 05:00N 37°28' E 025°19'611.6
2017-Oct-17 04:30N 37°32' E 025°24'1223.9
2017-Oct-17 04:00N 37°38' E 025°38'3 0.4
2017-Oct-16 19:23N 37°35' E 025°39'820.6
2017-Oct-16 19:00N 37°33' E 025°30'1020.1
2017-Oct-16 18:30N 37°29' E 025°18'2 4.4
2017-Oct-16 18:01N 37°28' E 025°16'1223.5
2017-Oct-16 17:30N 37°26' E 025°01'3 6.6
2017-Oct-16 17:00N 37°28' E 024°57'918.6
2017-Oct-16 16:31N 37°31' E 024°47'5120.5
2017-Oct-16 14:00N 37°41' E 023°43'1021.2
2017-Oct-16 13:31N 37°50' E 023°37'713.3
2017-Oct-16 13:00N 37°57' E 023°38'0 0.0
2017-Oct-16 12:30N 37°57' E 023°38'0 0.0
2017-Oct-16 12:00N 37°57' E 023°38'0 0.0
2017-Oct-16 11:30N 37°57' E 023°38'0 0.0
2017-Oct-16 11:00N 37°57' E 023°38'0 0.0
2017-Oct-16 10:30N 37°57' E 023°38'0 0.0
2017-Oct-16 10:00N 37°57' E 023°38'0 0.0
2017-Oct-16 09:30N 37°57' E 023°38'0 0.0
2017-Oct-16 09:00N 37°57' E 023°38'0 0.0
2017-Oct-16 08:30N 37°57' E 023°38'0 0.0
2017-Oct-16 07:59N 37°57' E 023°38'0 0.0
2017-Oct-16 07:30N 37°57' E 023°38'0 0.0
2017-Oct-16 07:00N 37°57' E 023°38'0 0.0
2017-Oct-16 06:30N 37°57' E 023°38'0 0.0
2017-Oct-16 06:00N 37°57' E 023°38'0 0.0
2017-Oct-16 05:30N 37°57' E 023°38'0 0.0
2017-Oct-16 05:00N 37°57' E 023°38'0 0.0
2017-Oct-16 04:30N 37°57' E 023°38'0 0.0
2017-Oct-16 04:00N 37°57' E 023°38'0 0.0
2017-Oct-16 03:30N 37°57' E 023°38'0 0.0
2017-Oct-16 03:00N 37°57' E 023°38'0 0.0
2017-Oct-16 02:30N 37°57' E 023°38'0 0.0
2017-Oct-16 02:00N 37°57' E 023°38'0 0.0
2017-Oct-16 01:30N 37°57' E 023°38'0 0.0
2017-Oct-16 01:00N 37°57' E 023°38'0 0.0
2017-Oct-16 00:30N 37°57' E 023°38'0 0.0
2017-Oct-16 00:00N 37°57' E 023°38'0 0.0
2017-Oct-15 23:30N 37°57' E 023°38'0 0.0
2017-Oct-15 23:00N 37°57' E 023°38'0 0.0
2017-Oct-15 22:30N 37°57' E 023°38'0 0.0
2017-Oct-15 22:00N 37°57' E 023°38'0 0.0
2017-Oct-15 21:30N 37°57' E 023°38'0 0.0
2017-Oct-15 21:00N 37°57' E 023°38'0 0.0
2017-Oct-15 20:30N 37°57' E 023°38'3 6.1
2017-Oct-15 20:00N 37°54' E 023°38'1223.4
2017-Oct-15 19:31N 37°43' E 023°44'4923.3
2017-Oct-15 17:26N 37°31' E 024°44'1023.6
2017-Oct-15 17:00N 37°30' E 024°56'4 7.8
2017-Oct-15 16:31N 37°27' E 024°59'1224.3
2017-Oct-15 16:01N 37°29' E 025°14'4 8.3
2017-Oct-15 15:31N 37°28' E 025°19'1122.4
2017-Oct-15 15:01N 37°37' E 025°26'2221.7
2017-Oct-15 14:01N 37°37' E 025°53'153 9.2
2017-Oct-14 21:25N 40°03' E 024°54'920.1
2017-Oct-14 20:59N 40°11' E 024°49'1020.6
2017-Oct-14 20:31N 40°19' E 024°42'1020.6
2017-Oct-14 20:01N 40°28' E 024°35'1020.6
2017-Oct-14 19:31N 40°37' E 024°29'1121.2
2017-Oct-14 19:01N 40°48' E 024°26'816.8
2017-Oct-14 18:30N 40°56' E 024°25'0 0.0
2017-Oct-14 18:00N 40°56' E 024°25'0 0.0
2017-Oct-14 17:30N 40°56' E 024°25'0 0.0
2017-Oct-14 17:00N 40°56' E 024°25'0 0.0
2017-Oct-14 16:30N 40°56' E 024°25'0 0.0
2017-Oct-14 16:00N 40°56' E 024°25'611.8
2017-Oct-14 15:31N 40°50' E 024°26'1121.4
2017-Oct-14 15:01N 40°40' E 024°29'1121.8
2017-Oct-14 14:30N 40°30' E 024°36'1122.0
2017-Oct-14 14:01N 40°20' E 024°42'1622.1
2017-Oct-14 13:16N 40°06' E 024°52'156 8.9
2017-Oct-13 19:42N 37°34' E 025°38'421.1
2017-Oct-13 19:30N 37°33' E 025°33'1221.3
2017-Oct-13 18:57N 37°30' E 025°18'2 5.5
2017-Oct-13 18:31N 37°28' E 025°19'1019.4
2017-Oct-13 18:01N 37°27' E 025°07'813.6
2017-Oct-13 17:23N 37°26' E 024°57'613.3
2017-Oct-13 16:57N 37°31' E 024°52'5420.4
2017-Oct-13 14:18N 37°39' E 023°45'620.6
2017-Oct-13 14:00N 37°44' E 023°40'1020.6
2017-Oct-13 13:30N 37°54' E 023°37'3 5.6
2017-Oct-13 13:00N 37°57' E 023°38'0 0.0
2017-Oct-13 12:30N 37°57' E 023°38'0 0.0
2017-Oct-13 12:00N 37°57' E 023°38'0 0.0
2017-Oct-13 11:30N 37°57' E 023°38'0 0.0
2017-Oct-13 11:00N 37°57' E 023°38'0 0.0
2017-Oct-13 10:30N 37°57' E 023°38'0 0.0
2017-Oct-13 10:00N 37°57' E 023°38'0 0.0
2017-Oct-13 09:30N 37°57' E 023°38'0 0.0
2017-Oct-13 09:01N 37°57' E 023°38'0 0.0
2017-Oct-13 08:30N 37°57' E 023°38'0 0.0
2017-Oct-13 08:00N 37°57' E 023°38'611.8
2017-Oct-13 07:31N 37°51' E 023°37'611.8
2017-Oct-13 07:00N 37°57' E 023°38'0 0.0
2017-Oct-13 06:30N 37°57' E 023°38'0 0.0
2017-Oct-13 06:00N 37°57' E 023°38'0 0.0
2017-Oct-13 05:30N 37°57' E 023°38'0 0.0
2017-Oct-13 05:00N 37°57' E 023°38'0 0.0
2017-Oct-13 04:30N 37°57' E 023°38'0 0.0
2017-Oct-13 04:00N 37°57' E 023°38'0 0.0
2017-Oct-13 03:30N 37°57' E 023°38'0 0.0
2017-Oct-13 03:00N 37°57' E 023°38'0 0.0
2017-Oct-13 02:30N 37°57' E 023°38'0 0.0
2017-Oct-13 02:00N 37°57' E 023°38'0 0.0
2017-Oct-13 01:30N 37°57' E 023°38'0 0.0
2017-Oct-13 01:00N 37°57' E 023°38'0 0.0
2017-Oct-13 00:30N 37°57' E 023°38'0 0.0
2017-Oct-13 00:00N 37°57' E 023°38'0 0.0
2017-Oct-12 23:30N 37°57' E 023°38'0 0.0
2017-Oct-12 23:00N 37°57' E 023°38'0 0.0
2017-Oct-12 22:30N 37°57' E 023°38'0 0.0
2017-Oct-12 22:00N 37°57' E 023°38'0 0.0
2017-Oct-12 21:30N 37°57' E 023°38'0 0.0
2017-Oct-12 21:00N 37°57' E 023°38'0 0.0
2017-Oct-12 20:30N 37°57' E 023°38'4 8.1
2017-Oct-12 20:01N 37°53' E 023°39'1224.2
2017-Oct-12 19:30N 37°42' E 023°45'4723.6
2017-Oct-12 17:30N 37°31' E 024°44'1122.5
2017-Oct-12 17:00N 37°29' E 024°57'5 9.5
2017-Oct-12 16:27N 37°27' E 025°03'1124.3
2017-Oct-12 16:01N 37°28' E 025°17'2 3.7
2017-Oct-12 15:30N 37°28' E 025°19'714.6
2017-Oct-12 15:01N 37°31' E 025°28'1223.0
2017-Oct-12 14:31N 37°31' E 025°42'148 9.0
2017-Oct-11 22:01N 39°55' E 024°60'120.9
2017-Oct-11 21:59N 39°55' E 024°59'1020.6
2017-Oct-11 21:30N 40°04' E 024°53'1020.4
2017-Oct-11 21:00N 40°13' E 024°47'1021.0
2017-Oct-11 20:30N 40°22' E 024°39'  

Dump ship's entire track history